Ryuoh Maru No.2 — JM5900 — position and weather

sailwx.info

Track history (hours):
 
Tides and Currents Weather Stations Pressure Air Temp Water Temp Dewpoint Dewpoint Depression Visibility Wind Speed Wind Dir Waves Ship Positions

Ryuoh Maru No.2

Last reported at 2014-Jul-15 17:33 UTC. Time now 2014-Jul-25 23:09 UTC.
Position N 36°58' E 141°05'.
Warning: this ship's position is 10 days out of date.

Length 80 m; draft 5.4 m.

Type: Cargo ship. MMSI: 431401218.

Date/timePositionNaut miles runAvg speedWind from/ knotsBaromVisibWave heightAir tempDewpointWater temp
2014-Jul-15 17:33N 36°58' E 141°05'1311.3
2014-Jul-15 16:22N 36°45' E 141°04'910.9
2014-Jul-15 15:30N 36°36' E 141°02'1111.0
2014-Jul-15 14:33N 36°25' E 141°01'1010.5
2014-Jul-15 13:33N 36°15' E 140°60'1110.6
2014-Jul-15 12:33N 36°04' E 140°59'1111.0
2014-Jul-15 11:33N 35°53' E 140°58'1111.0
2014-Jul-15 10:33N 35°42' E 140°56'1111.0
2014-Jul-15 09:33N 35°33' E 140°48'1211.8
2014-Jul-15 08:32N 35°24' E 140°39'1111.5
2014-Jul-15 07:33N 35°15' E 140°31'1511.0
2014-Jul-15 06:09N 35°04' E 140°17'711.6
2014-Jul-15 05:33N 35°00' E 140°10'1212.2
2014-Jul-15 04:33N 34°54' E 139°58'10 9.4
2014-Jul-15 03:29N 34°55' E 139°46'1010.4
2014-Jul-15 02:33N 35°04' E 139°44'1211.8
2014-Jul-15 01:33N 35°16' E 139°46'1010.3
2014-Jul-15 00:33N 35°26' E 139°45'10 9.7
2014-Jul-14 23:33N 35°34' E 139°52'0 0.3
2014-Jul-14 22:33N 35°34' E 139°52'0 0.0
2014-Jul-14 21:32N 35°34' E 139°52'0 0.0
2014-Jul-14 20:26N 35°34' E 139°52'0 0.0
2014-Jul-14 19:32N 35°34' E 139°52'0 0.0
2014-Jul-14 18:32N 35°34' E 139°52'0 0.0
2014-Jul-14 17:32N 35°34' E 139°52'0 0.0
2014-Jul-14 16:32N 35°34' E 139°52'0 0.0
2014-Jul-14 15:23N 35°35' E 139°52'0 0.0
2014-Jul-14 14:26N 35°35' E 139°52'0 0.0
2014-Jul-14 13:32N 35°35' E 139°52'0 0.0
2014-Jul-14 12:29N 35°35' E 139°52'0 0.0
2014-Jul-14 11:32N 35°35' E 139°52'3 2.7
2014-Jul-14 10:33N 35°37' E 139°50'1 0.8
2014-Jul-14 09:33N 35°37' E 139°50'0 0.0
2014-Jul-14 08:33N 35°37' E 139°50'0 0.0
2014-Jul-14 07:33N 35°37' E 139°50'0 0.0
2014-Jul-14 06:33N 35°37' E 139°50'0 0.0
2014-Jul-14 05:33N 35°37' E 139°50'0 0.0
2014-Jul-14 04:33N 35°37' E 139°50'0 0.0
2014-Jul-14 03:33N 35°37' E 139°50'0 0.0
2014-Jul-14 02:33N 35°37' E 139°50'0 0.0
2014-Jul-14 01:33N 35°37' E 139°50'0 0.0
2014-Jul-14 00:33N 35°37' E 139°50'0 0.0
2014-Jul-13 23:33N 35°37' E 139°50'0 0.0
2014-Jul-13 22:33N 35°37' E 139°50'4 3.6
2014-Jul-13 21:33N 35°34' E 139°52'0 0.1
2014-Jul-13 20:33N 35°34' E 139°52'0 0.0
2014-Jul-13 19:33N 35°34' E 139°52'0 0.0
2014-Jul-13 18:33N 35°34' E 139°52'0 0.0
2014-Jul-13 17:33N 35°34' E 139°52'0 0.0
2014-Jul-13 16:33N 35°34' E 139°52'5 5.1
2014-Jul-13 15:33N 35°29' E 139°52'1110.8
2014-Jul-13 14:33N 35°20' E 139°45'10 9.6
2014-Jul-13 13:33N 35°11' E 139°47'1110.9
2014-Jul-13 12:33N 35°00' E 139°43'9 8.6
2014-Jul-13 11:30N 34°52' E 139°49'10 8.9
2014-Jul-13 10:25N 34°55' E 139°60'9 8.7
2014-Jul-13 09:22N 34°60' E 140°09'7 9.0
2014-Jul-13 08:33N 35°04' E 140°17'14 9.5
2014-Jul-13 07:05N 35°13' E 140°29'8 9.5
2014-Jul-13 06:15N 35°20' E 140°35'7 9.4
2014-Jul-13 05:33N 35°25' E 140°40'9 9.4
2014-Jul-13 04:33N 35°32' E 140°47'1010.1
2014-Jul-13 03:33N 35°40' E 140°55'9 9.2
2014-Jul-13 02:32N 35°49' E 140°57'10 9.6
2014-Jul-13 01:33N 35°59' E 140°58'1410.4
2014-Jul-13 00:14N 36°12' E 140°60'810.8
2014-Jul-12 23:32N 36°20' E 141°01'1110.9
2014-Jul-12 22:32N 36°31' E 141°02'1110.8
2014-Jul-12 21:33N 36°41' E 141°03'1110.6
2014-Jul-12 20:30N 36°52' E 141°04'  
Track history (hours):
 
Tides and Currents Weather Stations Pressure Air Temp Water Temp Dewpoint Dewpoint Depression Visibility Wind Speed Wind Dir Waves Ship Positions

Ryuoh Maru No.2

Last reported at 2014-Jul-15 17:33 UTC. Time now 2014-Jul-25 23:09 UTC.
Position N 36°58' E 141°05'.
Warning: this ship's position is 10 days out of date.

Length 80 m; draft 5.4 m.

Type: Cargo ship. MMSI: 431401218.

Date/timePositionNaut miles runAvg speedWind from/ knotsBaromVisibWave heightAir tempDewpointWater temp
2014-Jul-15 17:33N 36°58' E 141°05'1311.3
2014-Jul-15 16:22N 36°45' E 141°04'910.9
2014-Jul-15 15:30N 36°36' E 141°02'1111.0
2014-Jul-15 14:33N 36°25' E 141°01'1010.5
2014-Jul-15 13:33N 36°15' E 140°60'1110.6
2014-Jul-15 12:33N 36°04' E 140°59'1111.0
2014-Jul-15 11:33N 35°53' E 140°58'1111.0
2014-Jul-15 10:33N 35°42' E 140°56'1111.0
2014-Jul-15 09:33N 35°33' E 140°48'1211.8
2014-Jul-15 08:32N 35°24' E 140°39'1111.5
2014-Jul-15 07:33N 35°15' E 140°31'1511.0
2014-Jul-15 06:09N 35°04' E 140°17'711.6
2014-Jul-15 05:33N 35°00' E 140°10'1212.2
2014-Jul-15 04:33N 34°54' E 139°58'10 9.4
2014-Jul-15 03:29N 34°55' E 139°46'1010.4
2014-Jul-15 02:33N 35°04' E 139°44'1211.8
2014-Jul-15 01:33N 35°16' E 139°46'1010.3
2014-Jul-15 00:33N 35°26' E 139°45'10 9.7
2014-Jul-14 23:33N 35°34' E 139°52'0 0.3
2014-Jul-14 22:33N 35°34' E 139°52'0 0.0
2014-Jul-14 21:32N 35°34' E 139°52'0 0.0
2014-Jul-14 20:26N 35°34' E 139°52'0 0.0
2014-Jul-14 19:32N 35°34' E 139°52'0 0.0
2014-Jul-14 18:32N 35°34' E 139°52'0 0.0
2014-Jul-14 17:32N 35°34' E 139°52'0 0.0
2014-Jul-14 16:32N 35°34' E 139°52'0 0.0
2014-Jul-14 15:23N 35°35' E 139°52'0 0.0
2014-Jul-14 14:26N 35°35' E 139°52'0 0.0
2014-Jul-14 13:32N 35°35' E 139°52'0 0.0
2014-Jul-14 12:29N 35°35' E 139°52'0 0.0
2014-Jul-14 11:32N 35°35' E 139°52'3 2.7
2014-Jul-14 10:33N 35°37' E 139°50'1 0.8
2014-Jul-14 09:33N 35°37' E 139°50'0 0.0
2014-Jul-14 08:33N 35°37' E 139°50'0 0.0
2014-Jul-14 07:33N 35°37' E 139°50'0 0.0
2014-Jul-14 06:33N 35°37' E 139°50'0 0.0
2014-Jul-14 05:33N 35°37' E 139°50'0 0.0
2014-Jul-14 04:33N 35°37' E 139°50'0 0.0
2014-Jul-14 03:33N 35°37' E 139°50'0 0.0
2014-Jul-14 02:33N 35°37' E 139°50'0 0.0
2014-Jul-14 01:33N 35°37' E 139°50'0 0.0
2014-Jul-14 00:33N 35°37' E 139°50'0 0.0
2014-Jul-13 23:33N 35°37' E 139°50'0 0.0
2014-Jul-13 22:33N 35°37' E 139°50'4 3.6
2014-Jul-13 21:33N 35°34' E 139°52'0 0.1
2014-Jul-13 20:33N 35°34' E 139°52'0 0.0
2014-Jul-13 19:33N 35°34' E 139°52'0 0.0
2014-Jul-13 18:33N 35°34' E 139°52'0 0.0
2014-Jul-13 17:33N 35°34' E 139°52'0 0.0
2014-Jul-13 16:33N 35°34' E 139°52'5 5.1
2014-Jul-13 15:33N 35°29' E 139°52'1110.8
2014-Jul-13 14:33N 35°20' E 139°45'10 9.6
2014-Jul-13 13:33N 35°11' E 139°47'1110.9
2014-Jul-13 12:33N 35°00' E 139°43'9 8.6
2014-Jul-13 11:30N 34°52' E 139°49'10 8.9
2014-Jul-13 10:25N 34°55' E 139°60'9 8.7
2014-Jul-13 09:22N 34°60' E 140°09'7 9.0
2014-Jul-13 08:33N 35°04' E 140°17'14 9.5
2014-Jul-13 07:05N 35°13' E 140°29'8 9.5
2014-Jul-13 06:15N 35°20' E 140°35'7 9.4
2014-Jul-13 05:33N 35°25' E 140°40'9 9.4
2014-Jul-13 04:33N 35°32' E 140°47'1010.1
2014-Jul-13 03:33N 35°40' E 140°55'9 9.2
2014-Jul-13 02:32N 35°49' E 140°57'10 9.6
2014-Jul-13 01:33N 35°59' E 140°58'1410.4
2014-Jul-13 00:14N 36°12' E 140°60'810.8
2014-Jul-12 23:32N 36°20' E 141°01'1110.9
2014-Jul-12 22:32N 36°31' E 141°02'1110.8
2014-Jul-12 21:33N 36°41' E 141°03'1110.6
2014-Jul-12 20:30N 36°52' E 141°04'  

Dump ship's entire track history